Terminal Aerodrome Forecast
Issued by NWS

Home | Current Version | Previous Version | Text Only | Print | Product List | Glossary On
Versions: 1 2 3 4 5 6 7 8 9 10 11 12 13 14 15 16 17 18 19 20 21
000
FTUS43 KDVN 031300 AAB
TAFCID
TAF AMD
KCID 031358Z 0314/0412 17013G19KT 1SM -FZDZ BR OVC006
     FM031700 22015KT 4SM BR OVC012
     FM032000 28014KT P6SM OVC022
     FM040000 31018G26KT P6SM SCT012 BKN025
     FM040500 32015G23KT P6SM SCT025 SCT100=

USA.gov is the U.S. government's official web portal to all federal, state and local government web resources and services.